createdAt,value
2018-06-27T18:24:09.577Z,98698.48
2018-06-27T18:26:39.047Z,98693.14
2018-06-27T18:29:08.547Z,98690.36
2018-06-27T18:31:38.005Z,98697.63
2018-06-27T18:34:07.569Z,98701.12
2018-06-27T18:36:36.955Z,98700.07
2018-06-27T18:39:09.661Z,98696.78
2018-06-27T18:41:39.278Z,98691.28
2018-06-27T18:44:08.845Z,98695.08
2018-06-27T18:46:38.113Z,98697.56
2018-06-27T18:49:07.716Z,98694.13
2018-06-27T18:51:37.399Z,98698.10
2018-06-27T18:54:07.952Z,98702.64
2018-06-27T18:56:37.514Z,98696.52
2018-06-27T18:59:06.751Z,98707.17
2018-06-27T19:01:36.553Z,98698.63
2018-06-27T19:04:06.251Z,98707.45
2018-06-27T19:06:35.773Z,98700.70
2018-06-27T19:09:08.495Z,98701.24
2018-06-27T19:11:37.965Z,98703.90
2018-06-27T19:14:07.518Z,98702.65
2018-06-27T19:16:37.201Z,98705.27
2018-06-27T19:19:06.892Z,98698.58
2018-06-27T19:21:36.560Z,98707.31
2018-06-27T19:24:07.958Z,98711.76
2018-06-27T19:26:37.434Z,98712.91
2018-06-27T19:29:06.990Z,98722.16
2018-06-27T19:31:36.462Z,98719.07
2018-06-27T19:34:05.966Z,98722.06
2018-06-27T19:36:35.369Z,98723.56
2018-06-27T19:39:07.097Z,98728.67
2018-06-27T19:41:36.722Z,98725.88
2018-06-27T19:44:06.186Z,98731.16
2018-06-27T19:46:35.674Z,98734.45
2018-06-27T19:49:05.174Z,98736.13
2018-06-27T19:51:34.658Z,98737.38
2018-06-27T19:54:04.167Z,98743.53
2018-06-27T19:56:33.688Z,98745.91
2018-06-27T19:59:03.137Z,98745.55
2018-06-27T20:01:32.639Z,98750.33
2018-06-27T20:04:02.106Z,98750.43
2018-06-27T20:06:31.496Z,98750.74
2018-06-27T20:09:00.950Z,98755.56
2018-06-27T20:11:30.418Z,98760.55
2018-06-27T20:13:59.845Z,98764.36
2018-06-27T20:16:29.480Z,98762.09
2018-06-27T20:18:58.917Z,98769.48
2018-06-27T20:21:28.432Z,98765.55
2018-06-27T20:23:57.754Z,98765.39
2018-06-27T20:26:27.398Z,98767.20
2018-06-27T20:28:56.849Z,98769.70
2018-06-27T20:31:26.323Z,98772.70
2018-06-27T20:33:55.969Z,98774.11
2018-06-27T20:36:25.528Z,98775.22
2018-06-27T20:38:55.021Z,98774.23
2018-06-27T20:41:24.467Z,98767.94
2018-06-27T20:43:53.987Z,98764.72
2018-06-27T20:46:23.643Z,98768.91
2018-06-27T20:48:53.126Z,98774.90
2018-06-27T20:51:22.620Z,98776.50
2018-06-27T20:53:52.035Z,98777.70
2018-06-27T20:56:21.728Z,98780.19
2018-06-27T20:58:51.202Z,98781.70
2018-06-27T21:01:20.695Z,98783.08
2018-06-27T21:03:50.337Z,98786.59
2018-06-27T21:06:19.834Z,98784.95
2018-06-27T21:08:49.336Z,98787.77
2018-06-27T21:11:18.842Z,98784.85
2018-06-27T21:13:48.374Z,98790.13
2018-06-27T21:16:17.913Z,98790.77
2018-06-27T21:18:47.334Z,98792.59
2018-06-27T21:21:16.788Z,98794.59
2018-06-27T21:23:46.382Z,98796.66
2018-06-27T21:26:15.941Z,98795.64
2018-06-27T21:28:45.348Z,98797.69
2018-06-27T21:31:14.899Z,98799.97
2018-06-27T21:33:44.486Z,98803.25
2018-06-27T21:36:14.035Z,98803.47
2018-06-27T21:38:43.484Z,98802.36
2018-06-27T21:41:12.945Z,98798.02
2018-06-27T21:43:42.521Z,98803.39
2018-06-27T21:46:11.945Z,98807.88
2018-06-27T21:48:41.492Z,98807.27
2018-06-27T21:51:11.049Z,98813.39
2018-06-27T21:53:40.143Z,98813.31
2018-06-27T21:56:10.035Z,98817.56
2018-06-27T21:58:39.488Z,98817.02
2018-06-27T22:01:08.998Z,98817.16
2018-06-27T22:03:38.618Z,98815.28
2018-06-27T22:06:08.037Z,98815.16
2018-06-27T22:08:37.494Z,98825.44
2018-06-27T22:11:07.033Z,98829.41
2018-06-27T22:13:36.665Z,98828.39
2018-06-27T22:16:06.284Z,98828.72
2018-06-27T22:18:35.766Z,98831.42
2018-06-27T22:21:05.252Z,98831.15
2018-06-27T22:23:34.698Z,98828.88
2018-06-27T22:26:04.177Z,98827.45
2018-06-27T22:28:33.611Z,98827.18
2018-06-27T22:31:03.295Z,98830.16
2018-06-27T22:33:32.730Z,98831.84
2018-06-27T22:36:02.136Z,98831.97
2018-06-27T22:38:31.804Z,98830.19
2018-06-27T22:41:01.225Z,98836.95
2018-06-27T22:43:30.696Z,98835.13
2018-06-27T22:46:00.366Z,98834.16
2018-06-27T22:48:29.773Z,98838.45
2018-06-27T22:50:59.203Z,98834.84
2018-06-27T22:53:28.650Z,98836.59
2018-06-27T22:55:58.117Z,98831.39
2018-06-27T22:58:27.218Z,98832.34
2018-06-27T23:00:56.628Z,98836.54
2018-06-27T23:03:26.632Z,98832.14
2018-06-27T23:05:55.783Z,98841.95
2018-06-27T23:08:25.253Z,98840.16
2018-06-27T23:10:54.983Z,98840.16
2018-06-27T23:13:24.390Z,98843.73
2018-06-27T23:15:53.824Z,98843.92
2018-06-27T23:18:23.280Z,98846.18
2018-06-27T23:20:52.705Z,98846.27
2018-06-27T23:23:22.283Z,98848.55
2018-06-27T23:25:51.439Z,98848.97
2018-06-27T23:28:20.866Z,98845.42
2018-06-27T23:30:50.308Z,98841.03
2018-06-27T23:33:19.735Z,98841.29
2018-06-27T23:35:49.173Z,98844.02
2018-06-27T23:38:18.606Z,98836.00
2018-06-27T23:40:48.054Z,98837.02
2018-06-27T23:43:17.537Z,98835.41
2018-06-27T23:45:46.993Z,98840.89
2018-06-27T23:48:16.432Z,98839.91
2018-06-27T23:50:46.414Z,98835.97
2018-06-27T23:53:15.893Z,98839.72
2018-06-27T23:55:45.282Z,98835.69
2018-06-27T23:58:14.806Z,98834.16
